createdAt,value
2018-02-09T00:00:09.615Z,101569.58
2018-02-09T00:02:35.421Z,101572.39
2018-02-09T00:05:01.234Z,101568.40
2018-02-09T00:07:27.090Z,101563.01
2018-02-09T00:09:52.901Z,101568.40
2018-02-09T00:12:18.722Z,101566.47
2018-02-09T00:14:44.534Z,101567.54
2018-02-09T00:17:11.234Z,101568.20
2018-02-09T00:19:37.051Z,101566.66
2018-02-09T00:22:02.908Z,101563.66
2018-02-09T00:24:28.758Z,101567.17
2018-02-09T00:26:54.623Z,101562.77
2018-02-09T00:29:20.434Z,101563.59
2018-02-09T00:31:46.246Z,101569.70
2018-02-09T00:34:12.063Z,101568.05
2018-02-09T00:36:37.880Z,101565.33
2018-02-09T00:39:03.730Z,101570.59
2018-02-09T00:41:29.542Z,101564.92
2018-02-09T00:43:55.359Z,101566.11
2018-02-09T00:46:21.182Z,101566.42
2018-02-09T00:48:46.995Z,101562.04
2018-02-09T00:51:12.815Z,101561.57
2018-02-09T00:53:38.698Z,101561.99
2018-02-09T00:56:04.646Z,101562.07
2018-02-09T00:58:30.461Z,101560.68
2018-02-09T01:00:56.431Z,101571.41
2018-02-09T01:03:22.239Z,101570.12
2018-02-09T01:05:48.055Z,101567.91
2018-02-09T01:08:13.871Z,101564.26
2018-02-09T01:10:39.685Z,101563.59
2018-02-09T01:13:05.540Z,101563.88
2018-02-09T01:15:31.356Z,101562.44
2018-02-09T01:17:57.169Z,101563.48
2018-02-09T01:20:22.987Z,101561.14
2018-02-09T01:22:48.801Z,101559.72
2018-02-09T01:25:14.622Z,101558.73
2018-02-09T01:27:40.441Z,101556.95
2018-02-09T01:30:06.255Z,101558.54
2018-02-09T01:32:32.066Z,101549.38
2018-02-09T01:34:57.883Z,101547.59
2018-02-09T01:37:23.694Z,101546.52
2018-02-09T01:39:49.551Z,101546.15
2018-02-09T01:42:15.362Z,101539.91
2018-02-09T01:44:41.175Z,101538.22
2018-02-09T01:47:06.986Z,101528.59
2018-02-09T01:49:32.814Z,101536.77
2018-02-09T01:51:58.634Z,101532.88
2018-02-09T01:54:24.450Z,101527.15
2018-02-09T01:56:50.458Z,101526.63
2018-02-09T01:59:16.270Z,101525.92
2018-02-09T02:01:42.202Z,101527.44
2018-02-09T02:04:08.011Z,101520.83
2018-02-09T02:06:33.826Z,101522.56
2018-02-09T02:08:59.695Z,101520.72
2018-02-09T02:11:25.557Z,101523.36
2018-02-09T02:13:51.370Z,101524.48
2018-02-09T02:16:17.186Z,101511.72
2018-02-09T02:18:43.002Z,101516.43
2018-02-09T02:21:08.818Z,101512.96
2018-02-09T02:23:34.682Z,101511.98
2018-02-09T02:26:00.507Z,101511.89
2018-02-09T02:28:26.327Z,101505.38
2018-02-09T02:30:52.135Z,101508.77
2018-02-09T02:33:18.002Z,101508.92
2018-02-09T02:35:43.806Z,101505.92
2018-02-09T02:38:09.631Z,101505.21
2018-02-09T02:40:35.447Z,101504.36
2018-02-09T02:43:01.267Z,101506.41
2018-02-09T02:45:27.125Z,101502.73
2018-02-09T02:47:52.940Z,101501.22
2018-02-09T02:50:18.791Z,101495.50
2018-02-09T02:52:44.600Z,101498.70
2018-02-09T02:55:10.451Z,101495.52
2018-02-09T02:57:36.306Z,101494.44
2018-02-09T03:00:02.118Z,101490.86
2018-02-09T03:02:27.957Z,101489.69
2018-02-09T03:04:53.778Z,101488.17
2018-02-09T03:07:19.591Z,101487.87
2018-02-09T03:09:45.398Z,101484.55
2018-02-09T03:12:11.207Z,101483.27
2018-02-09T03:14:37.062Z,101478.27
2018-02-09T03:17:02.883Z,101478.23
2018-02-09T03:19:28.734Z,101474.92
2018-02-09T03:21:54.576Z,101474.02
2018-02-09T03:24:20.386Z,101472.59
2018-02-09T03:26:46.202Z,101469.84
2018-02-09T03:29:12.010Z,101468.19
2018-02-09T03:31:37.867Z,101470.94
2018-02-09T03:34:03.684Z,101470.94
2018-02-09T03:36:29.506Z,101464.97
2018-02-09T03:38:55.362Z,101464.17
2018-02-09T03:41:21.970Z,101461.12
2018-02-09T03:43:47.786Z,101454.37
2018-02-09T03:46:13.603Z,101450.86
2018-02-09T03:48:39.454Z,101456.83
2018-02-09T03:51:05.410Z,101450.63
2018-02-09T03:53:31.250Z,101454.53
2018-02-09T03:55:57.069Z,101453.27
2018-02-09T03:58:22.884Z,101451.34
2018-02-09T04:00:48.760Z,101449.88
2018-02-09T04:03:14.577Z,101455.17
2018-02-09T04:05:40.394Z,101447.86
2018-02-09T04:08:06.203Z,101444.75
2018-02-09T04:10:32.063Z,101452.28
2018-02-09T04:12:57.880Z,101442.91
2018-02-09T04:15:23.697Z,101450.21
2018-02-09T04:17:49.516Z,101448.85
2018-02-09T04:20:15.330Z,101445.89
2018-02-09T04:22:41.142Z,101442.70
2018-02-09T04:25:06.946Z,101444.79
2018-02-09T04:27:32.773Z,101450.00
2018-02-09T04:29:58.594Z,101441.78
2018-02-09T04:32:24.410Z,101441.00
2018-02-09T04:34:50.226Z,101436.18
2018-02-09T04:37:16.038Z,101437.48
2018-02-09T04:39:41.854Z,101444.79
2018-02-09T04:42:07.671Z,101441.02
2018-02-09T04:44:33.488Z,101440.20
2018-02-09T04:46:59.355Z,101441.25
2018-02-09T04:49:26.326Z,101438.56
2018-02-09T04:51:52.136Z,101440.92
2018-02-09T04:54:17.948Z,101433.16
2018-02-09T04:56:43.765Z,101436.90
2018-02-09T04:59:09.582Z,101437.61
2018-02-09T05:01:35.437Z,101436.89
2018-02-09T05:04:01.244Z,101434.84
2018-02-09T05:06:27.054Z,101433.09
2018-02-09T05:08:52.862Z,101433.73
2018-02-09T05:11:18.715Z,101430.63
2018-02-09T05:13:44.529Z,101428.42
2018-02-09T05:16:10.349Z,101417.10
2018-02-09T05:18:36.161Z,101427.52
2018-02-09T05:21:01.975Z,101428.98
2018-02-09T05:23:27.781Z,101422.35
2018-02-09T05:25:53.596Z,101427.86
2018-02-09T05:28:19.410Z,101428.39
2018-02-09T05:30:45.262Z,101422.83
2018-02-09T05:33:11.073Z,101421.78
2018-02-09T05:35:36.918Z,101418.41
2018-02-09T05:38:02.743Z,101409.08
2018-02-09T05:40:28.554Z,101405.95
2018-02-09T05:42:54.464Z,101407.17
2018-02-09T05:45:20.397Z,101402.22
2018-02-09T05:47:46.214Z,101401.13
2018-02-09T05:50:12.022Z,101401.34
2018-02-09T05:52:37.842Z,101395.81
2018-02-09T05:55:03.667Z,101397.06
2018-02-09T05:57:29.481Z,101397.52
2018-02-09T05:59:55.293Z,101388.11
2018-02-09T06:02:21.106Z,101387.67
2018-02-09T06:04:46.917Z,101383.92
2018-02-09T06:07:12.762Z,101381.88
2018-02-09T06:09:38.574Z,101378.88
2018-02-09T06:12:04.437Z,101385.75
2018-02-09T06:14:30.249Z,101379.61
2018-02-09T06:16:56.059Z,101383.11
2018-02-09T06:19:21.884Z,101379.86
2018-02-09T06:21:47.697Z,101388.94
2018-02-09T06:24:13.509Z,101383.61
2018-02-09T06:26:39.330Z,101384.12
2018-02-09T06:29:05.148Z,101385.72
2018-02-09T06:31:31.949Z,101382.70
2018-02-09T06:33:58.691Z,101380.91
2018-02-09T06:36:24.527Z,101380.44
2018-02-09T06:38:50.335Z,101378.86
2018-02-09T06:41:16.183Z,101380.02
2018-02-09T06:43:42.526Z,101387.94
2018-02-09T06:46:08.390Z,101388.16
2018-02-09T06:48:34.294Z,101387.62
2018-02-09T06:51:00.162Z,101388.78
2018-02-09T06:53:26.018Z,101388.75
2018-02-09T06:55:51.836Z,101385.02
2018-02-09T06:58:17.650Z,101386.51
2018-02-09T07:00:43.562Z,101386.41
2018-02-09T07:03:09.378Z,101391.50
2018-02-09T07:05:35.182Z,101391.06
2018-02-09T07:08:01.003Z,101392.77
2018-02-09T07:10:26.862Z,101400.49
2018-02-09T07:12:52.666Z,101395.44
2018-02-09T07:15:18.507Z,101397.42
2018-02-09T07:17:44.334Z,101394.86
2018-02-09T07:20:16.231Z,101393.08
2018-02-09T07:22:42.093Z,101396.70
2018-02-09T07:25:07.944Z,101391.44
2018-02-09T07:27:33.754Z,101392.70
2018-02-09T07:29:59.570Z,101398.91
2018-02-09T07:32:25.402Z,101399.32
2018-02-09T07:34:51.222Z,101402.40
2018-02-09T07:37:17.069Z,101409.66
2018-02-09T07:39:42.874Z,101399.05
2018-02-09T07:42:08.690Z,101399.78
2018-02-09T07:44:34.506Z,101399.37
2018-02-09T07:47:00.363Z,101398.78
2018-02-09T07:49:26.182Z,101402.70
2018-02-09T07:51:51.999Z,101389.13
2018-02-09T07:54:17.847Z,101399.84
2018-02-09T07:56:43.658Z,101393.21
2018-02-09T07:59:09.605Z,101392.32
2018-02-09T08:01:35.419Z,101390.48
2018-02-09T08:04:01.235Z,101391.53
2018-02-09T08:06:27.045Z,101389.64
2018-02-09T08:08:52.855Z,101390.11
2018-02-09T08:11:18.664Z,101390.88
2018-02-09T08:13:44.610Z,101384.92
2018-02-09T08:16:10.418Z,101383.50
2018-02-09T08:18:36.225Z,101382.86
2018-02-09T08:21:02.041Z,101374.09
2018-02-09T08:23:27.854Z,101372.14
2018-02-09T08:25:53.670Z,101382.86
2018-02-09T08:28:19.504Z,101373.40
2018-02-09T08:30:45.349Z,101376.67
2018-02-09T08:33:11.155Z,101380.66
2018-02-09T08:35:37.123Z,101372.26
2018-02-09T08:38:02.979Z,101374.39
2018-02-09T08:40:28.807Z,101372.36
2018-02-09T08:42:54.666Z,101371.22
2018-02-09T08:45:20.685Z,101370.90
2018-02-09T08:47:46.507Z,101369.73
2018-02-09T08:50:12.450Z,101365.06
2018-02-09T08:52:38.348Z,101358.17
2018-02-09T08:55:04.170Z,101360.50
2018-02-09T08:57:29.990Z,101364.70
2018-02-09T08:59:55.803Z,101354.82
2018-02-09T09:02:21.614Z,101352.03
2018-02-09T09:04:47.474Z,101349.98
2018-02-09T09:07:13.320Z,101351.39
2018-02-09T09:09:39.143Z,101347.52
2018-02-09T09:12:05.162Z,101347.45
2018-02-09T09:14:30.969Z,101347.14
2018-02-09T09:16:56.782Z,101347.83
2018-02-09T09:19:22.626Z,101348.19
2018-02-09T09:21:48.444Z,101353.66
2018-02-09T09:24:14.317Z,101345.08
2018-02-09T09:26:40.326Z,101342.45
2018-02-09T09:29:06.190Z,101340.16
2018-02-09T09:31:32.006Z,101330.32
2018-02-09T09:33:57.823Z,101323.32
2018-02-09T09:36:23.853Z,101327.05
2018-02-09T09:38:49.674Z,101332.42
2018-02-09T09:41:15.558Z,101330.62
2018-02-09T09:43:41.474Z,101324.80
2018-02-09T09:46:07.290Z,101329.43
2018-02-09T09:48:33.141Z,101328.15
2018-02-09T09:50:58.946Z,101329.22
2018-02-09T09:53:24.770Z,101321.01
2018-02-09T09:55:50.674Z,101319.32
2018-02-09T09:58:16.482Z,101327.79
2018-02-09T10:00:42.295Z,101323.41
2018-02-09T10:03:08.112Z,101322.64
2018-02-09T10:05:33.929Z,101316.55
2018-02-09T10:07:59.865Z,101318.39
2018-02-09T10:10:25.795Z,101307.55
2018-02-09T10:12:51.606Z,101312.32
2018-02-09T10:15:17.417Z,101303.72
2018-02-09T10:17:43.266Z,101306.02
2018-02-09T10:20:09.082Z,101299.72
2018-02-09T10:22:34.965Z,101295.15
2018-02-09T10:25:00.819Z,101300.03
2018-02-09T10:27:26.738Z,101297.77
2018-02-09T10:29:52.558Z,101300.14
2018-02-09T10:32:18.374Z,101299.41
2018-02-09T10:34:44.183Z,101291.88
2018-02-09T10:37:10.003Z,101297.98
2018-02-09T10:39:35.950Z,101293.14
2018-02-09T10:42:01.761Z,101289.73
2018-02-09T10:44:27.586Z,101284.06
2018-02-09T10:46:53.402Z,101286.58
2018-02-09T10:49:19.218Z,101283.73
2018-02-09T10:51:45.061Z,101285.38
2018-02-09T10:54:10.879Z,101287.94
2018-02-09T10:56:36.731Z,101282.62
2018-02-09T10:59:02.584Z,101277.69
2018-02-09T11:01:34.539Z,101272.22
2018-02-09T11:04:00.355Z,101280.09
2018-02-09T11:06:26.168Z,101276.27
2018-02-09T11:08:51.989Z,101278.84
2018-02-09T11:11:17.976Z,101275.59
2018-02-09T11:13:43.809Z,101272.92
2018-02-09T11:16:09.628Z,101274.42
2018-02-09T11:18:35.490Z,101270.20
2018-02-09T11:21:01.314Z,101263.77
2018-02-09T11:23:27.144Z,101258.63
2018-02-09T11:25:53.009Z,101258.80
2018-02-09T11:28:18.885Z,101253.19
2018-02-09T11:30:44.754Z,101259.33
2018-02-09T11:33:10.571Z,101254.09
2018-02-09T11:35:36.564Z,101257.35
2018-02-09T11:38:02.418Z,101258.48
2018-02-09T11:40:28.230Z,101249.44
2018-02-09T11:42:54.055Z,101252.66
2018-02-09T11:45:19.877Z,101243.61
2018-02-09T11:47:45.685Z,101244.38
2018-02-09T11:50:11.502Z,101235.59
2018-02-09T11:52:37.378Z,101235.27
2018-02-09T11:55:03.188Z,101233.45
2018-02-09T11:57:29.046Z,101229.04
2018-02-09T11:59:54.901Z,101229.58
2018-02-09T12:02:20.784Z,101227.08
2018-02-09T12:04:46.635Z,101224.20
2018-02-09T12:07:12.452Z,101225.56
2018-02-09T12:09:38.262Z,101230.00
2018-02-09T12:12:04.147Z,101216.76
2018-02-09T12:14:29.957Z,101220.01
2018-02-09T12:16:55.810Z,101220.59
2018-02-09T12:19:21.822Z,101218.47
2018-02-09T12:21:47.693Z,101215.22
2018-02-09T12:24:13.555Z,101212.36
2018-02-09T12:26:39.417Z,101211.72
2018-02-09T12:29:05.229Z,101210.54
2018-02-09T12:31:31.129Z,101204.30
2018-02-09T12:33:56.940Z,101201.05
2018-02-09T12:36:22.747Z,101205.31
2018-02-09T12:38:48.596Z,101200.52
2018-02-09T12:41:14.414Z,101197.38
2018-02-09T12:43:40.264Z,101200.23
2018-02-09T12:46:06.120Z,101193.13
2018-02-09T12:48:31.961Z,101189.48
2018-02-09T12:50:57.810Z,101186.24
2018-02-09T12:53:23.627Z,101184.55
2018-02-09T12:55:49.482Z,101176.22
2018-02-09T12:58:15.330Z,101182.72
2018-02-09T13:00:41.174Z,101176.44
2018-02-09T13:03:06.973Z,101168.57
2018-02-09T13:05:32.901Z,101169.28
2018-02-09T13:07:58.850Z,101165.97
2018-02-09T13:10:24.690Z,101160.61
2018-02-09T13:12:56.747Z,101159.52
2018-02-09T13:15:22.568Z,101157.65
2018-02-09T13:17:48.601Z,101153.73
2018-02-09T13:20:14.463Z,101156.14
2018-02-09T13:22:46.305Z,101156.86
2018-02-09T13:25:12.306Z,101152.68
2018-02-09T13:27:38.118Z,101149.52
2018-02-09T13:30:03.934Z,101147.47
2018-02-09T13:32:36.057Z,101148.20
2018-02-09T13:35:01.906Z,101140.12
2018-02-09T13:37:32.753Z,101138.98
2018-02-09T13:39:58.565Z,101136.34
2018-02-09T13:42:24.581Z,101138.05
2018-02-09T13:44:50.394Z,101133.33
2018-02-09T13:47:16.204Z,101131.48
2018-02-09T13:49:42.015Z,101125.97
2018-02-09T13:52:07.817Z,101129.24
2018-02-09T13:54:33.807Z,101127.81
2018-02-09T13:56:59.625Z,101123.53
2018-02-09T13:59:25.486Z,101128.52
2018-02-09T14:01:51.295Z,101124.29
2018-02-09T14:04:17.106Z,101121.44
2018-02-09T14:06:42.913Z,101116.41
2018-02-09T14:09:08.732Z,101118.14
2018-02-09T14:11:34.538Z,101121.02
2018-02-09T14:14:00.365Z,101113.18
2018-02-09T14:16:26.226Z,101113.75
2018-02-09T14:18:52.038Z,101117.45
2018-02-09T14:21:17.850Z,101113.65
2018-02-09T14:23:43.677Z,101115.84
2018-02-09T14:26:09.498Z,101110.80
2018-02-09T14:28:35.361Z,101109.94
2018-02-09T14:31:01.217Z,101103.89
2018-02-09T14:33:27.031Z,101105.09
2018-02-09T14:35:52.854Z,101106.84
2018-02-09T14:38:18.683Z,101098.18
2018-02-09T14:40:44.494Z,101102.19
2018-02-09T14:43:10.331Z,101101.09
2018-02-09T14:45:36.366Z,101099.01
2018-02-09T14:48:02.169Z,101099.50
2018-02-09T14:50:27.990Z,101103.32
2018-02-09T14:52:53.798Z,101103.50
2018-02-09T14:55:19.610Z,101103.80
2018-02-09T14:57:45.414Z,101105.48
2018-02-09T15:00:11.242Z,101101.77
2018-02-09T15:02:37.051Z,101103.98
2018-02-09T15:05:02.905Z,101105.05
2018-02-09T15:07:28.734Z,101103.48
2018-02-09T15:09:54.578Z,101105.66
2018-02-09T15:12:20.435Z,101107.98
2018-02-09T15:14:46.289Z,101101.06
2018-02-09T15:17:12.142Z,101100.89
2018-02-09T15:19:37.990Z,101100.63
2018-02-09T15:22:03.838Z,101099.45
2018-02-09T15:24:29.658Z,101100.58
2018-02-09T15:26:55.507Z,101087.77
2018-02-09T15:29:21.361Z,101094.79
2018-02-09T15:31:47.219Z,101092.88
2018-02-09T15:34:13.033Z,101097.78
2018-02-09T15:36:38.902Z,101099.62
2018-02-09T15:39:04.711Z,101099.84
2018-02-09T15:41:31.402Z,101098.20
2018-02-09T15:43:57.214Z,101097.53
2018-02-09T15:46:23.169Z,101097.34
2018-02-09T15:48:49.831Z,101096.22
2018-02-09T15:51:15.781Z,101104.40
2018-02-09T15:53:42.405Z,101100.27
2018-02-09T15:56:08.227Z,101101.23
2018-02-09T15:58:34.044Z,101101.23
2018-02-09T16:00:59.896Z,101100.05
2018-02-09T16:03:25.715Z,101101.11
2018-02-09T16:05:51.532Z,101104.98
2018-02-09T16:08:17.387Z,101101.63
2018-02-09T16:10:50.174Z,101103.83
2018-02-09T16:13:16.030Z,101102.23
2018-02-09T16:15:41.844Z,101101.10
2018-02-09T16:18:07.661Z,101100.31
2018-02-09T16:20:33.486Z,101104.72
2018-02-09T16:22:59.341Z,101099.70
2018-02-09T16:25:25.159Z,101103.61
2018-02-09T16:27:51.050Z,101102.38
2018-02-09T16:30:16.871Z,101105.34
2018-02-09T16:32:42.727Z,101108.23
2018-02-09T16:35:08.542Z,101104.50
2018-02-09T16:37:34.382Z,101099.21
2018-02-09T16:40:00.207Z,101106.32
2018-02-09T16:42:26.024Z,101107.77
2018-02-09T16:44:51.850Z,101110.87
2018-02-09T16:47:17.679Z,101113.97
2018-02-09T16:49:43.529Z,101117.97
2018-02-09T16:52:09.511Z,101114.08
2018-02-09T16:54:35.329Z,101116.61
2018-02-09T16:57:01.314Z,101119.19
2018-02-09T16:59:27.130Z,101115.39
2018-02-09T17:01:52.944Z,101120.31
2018-02-09T17:04:18.759Z,101115.40
2018-02-09T17:06:44.571Z,101121.87
2018-02-09T17:09:10.418Z,101124.19
2018-02-09T17:11:36.247Z,101124.61
2018-02-09T17:14:02.056Z,101123.10
2018-02-09T17:16:27.870Z,101122.98
2018-02-09T17:18:53.807Z,101119.66
2018-02-09T17:21:19.627Z,101122.21
2018-02-09T17:23:45.484Z,101126.00
2018-02-09T17:26:11.366Z,101124.63
2018-02-09T17:28:37.179Z,101117.42
2018-02-09T17:31:03.249Z,101120.36
2018-02-09T17:33:29.228Z,101122.97
2018-02-09T17:35:55.038Z,101120.05
2018-02-09T17:38:20.885Z,101120.00
2018-02-09T17:40:46.686Z,101124.27
2018-02-09T17:43:12.626Z,101121.31
2018-02-09T17:45:38.534Z,101123.95
2018-02-09T17:48:04.442Z,101126.11
2018-02-09T17:50:30.349Z,101134.19
2018-02-09T17:52:56.158Z,101127.95
2018-02-09T17:55:21.994Z,101131.77
2018-02-09T17:57:48.155Z,101132.03
2018-02-09T18:00:14.033Z,101135.05
2018-02-09T18:02:39.902Z,101129.69
2018-02-09T18:05:05.729Z,101137.05
2018-02-09T18:07:42.588Z,101133.26
2018-02-09T18:10:08.485Z,101132.00
2018-02-09T18:12:34.327Z,101132.31
2018-02-09T18:15:00.166Z,101134.50
2018-02-09T18:17:27.980Z,101138.97
2018-02-09T18:19:53.931Z,101137.29
2018-02-09T18:22:19.744Z,101141.13
2018-02-09T18:24:45.554Z,101146.58
2018-02-09T18:27:11.374Z,101148.81
2018-02-09T18:29:37.349Z,101150.50
2018-02-09T18:32:03.259Z,101149.26
2018-02-09T18:34:29.107Z,101154.11
2018-02-09T18:36:54.925Z,101151.23
2018-02-09T18:39:20.733Z,101155.29
2018-02-09T18:41:46.537Z,101155.45
2018-02-09T18:44:12.422Z,101158.78
2018-02-09T18:46:38.233Z,101160.77
2018-02-09T18:49:04.081Z,101162.86
2018-02-09T18:51:29.934Z,101163.69
2018-02-09T18:53:55.822Z,101168.67
2018-02-09T18:56:21.781Z,101164.44
2018-02-09T18:58:47.676Z,101168.52
2018-02-09T19:01:13.509Z,101169.57
2018-02-09T19:03:39.339Z,101171.63
2018-02-09T19:06:05.185Z,101172.42
2018-02-09T19:08:31.046Z,101167.20
2018-02-09T19:10:57.993Z,101168.44
2018-02-09T19:13:23.958Z,101169.91
2018-02-09T19:15:49.835Z,101167.36
2018-02-09T19:18:15.713Z,101175.70
2018-02-09T19:20:41.537Z,101174.67
2018-02-09T19:23:07.406Z,101175.85
2018-02-09T19:25:33.322Z,101171.67
2018-02-09T19:27:59.342Z,101170.36
2018-02-09T19:30:25.170Z,101171.25
2018-02-09T19:32:51.025Z,101174.70
2018-02-09T19:35:16.909Z,101178.82
2018-02-09T19:37:42.890Z,101176.52
2018-02-09T19:40:08.698Z,101179.23
2018-02-09T19:42:34.510Z,101175.18
2018-02-09T19:45:00.491Z,101168.48
2018-02-09T19:47:26.358Z,101167.36
2018-02-09T19:49:52.171Z,101171.66
2018-02-09T19:52:18.019Z,101174.67
2018-02-09T19:54:43.977Z,101173.86
2018-02-09T19:57:09.898Z,101168.78
2018-02-09T19:59:35.822Z,101171.09
2018-02-09T20:02:02.670Z,101172.72
2018-02-09T20:04:28.484Z,101174.06
2018-02-09T20:06:54.291Z,101169.89
2018-02-09T20:09:20.120Z,101172.47
2018-02-09T20:11:45.947Z,101168.61
2018-02-09T20:14:11.755Z,101168.95
2018-02-09T20:16:37.598Z,101163.84
2018-02-09T20:19:03.426Z,101165.09
2018-02-09T20:21:29.291Z,101165.76
2018-02-09T20:23:55.124Z,101165.39
2018-02-09T20:26:20.943Z,101165.70
2018-02-09T20:28:46.787Z,101162.89
2018-02-09T20:31:12.645Z,101165.18
2018-02-09T20:33:38.518Z,101173.98
2018-02-09T20:36:04.503Z,101164.02
2018-02-09T20:38:30.328Z,101165.70
2018-02-09T20:40:56.142Z,101165.14
2018-02-09T20:43:21.959Z,101166.48
2018-02-09T20:45:47.834Z,101165.07
2018-02-09T20:48:13.650Z,101160.41
2018-02-09T20:50:39.820Z,101164.91
2018-02-09T20:53:05.783Z,101161.52
2018-02-09T20:55:31.610Z,101160.84
2018-02-09T20:57:57.470Z,101164.45
2018-02-09T21:00:23.341Z,101164.35
2018-02-09T21:02:49.200Z,101161.70
2018-02-09T21:05:15.254Z,101167.03
2018-02-09T21:07:41.130Z,101163.25
2018-02-09T21:10:06.946Z,101159.98
2018-02-09T21:12:32.851Z,101165.05
2018-02-09T21:14:59.710Z,101160.78
2018-02-09T21:17:25.558Z,101161.77
2018-02-09T21:19:51.383Z,101160.30
2018-02-09T21:22:17.200Z,101160.28
2018-02-09T21:24:43.018Z,101161.91
2018-02-09T21:27:08.829Z,101162.14
2018-02-09T21:29:34.643Z,101162.63
2018-02-09T21:32:00.518Z,101159.13
2018-02-09T21:34:26.382Z,101158.70
2018-02-09T21:36:52.292Z,101152.52
2018-02-09T21:39:18.102Z,101159.59
2018-02-09T21:41:43.914Z,101157.26
2018-02-09T21:44:09.873Z,101163.66
2018-02-09T21:46:36.329Z,101161.77
2018-02-09T21:49:02.160Z,101163.23
2018-02-09T21:51:28.018Z,101165.20
2018-02-09T21:53:53.834Z,101158.25
2018-02-09T21:56:19.677Z,101165.81
2018-02-09T21:58:45.482Z,101161.72
2018-02-09T22:01:12.316Z,101163.94
2018-02-09T22:03:38.153Z,101165.89
2018-02-09T22:06:04.670Z,101161.73
2018-02-09T22:08:30.706Z,101163.45
2018-02-09T22:10:56.514Z,101166.13
2018-02-09T22:13:23.187Z,101166.70
2018-02-09T22:15:49.365Z,101170.50
2018-02-09T22:18:15.358Z,101175.21
2018-02-09T22:20:41.246Z,101174.05
2018-02-09T22:23:07.054Z,101170.60
2018-02-09T22:25:32.868Z,101173.59
2018-02-09T22:27:58.683Z,101177.23
2018-02-09T22:30:26.667Z,101179.12
2018-02-09T22:32:52.646Z,101176.34
2018-02-09T22:35:18.489Z,101174.17
2018-02-09T22:37:44.339Z,101173.66
2018-02-09T22:40:10.242Z,101173.33
2018-02-09T22:42:36.118Z,101171.31
2018-02-09T22:45:02.533Z,101172.13
2018-02-09T22:47:28.942Z,101169.80
2018-02-09T22:49:54.753Z,101170.75
2018-02-09T22:52:20.558Z,101169.94
2018-02-09T22:54:46.404Z,101171.15
2018-02-09T22:57:13.102Z,101172.91
2018-02-09T22:59:39.339Z,101166.45
2018-02-09T23:02:05.625Z,101169.38
2018-02-09T23:04:31.464Z,101165.23
2018-02-09T23:06:57.364Z,101171.08
2018-02-09T23:09:23.547Z,101161.41
2018-02-09T23:11:49.629Z,101169.36
2018-02-09T23:14:15.478Z,101167.25
2018-02-09T23:16:41.537Z,101160.25
2018-02-09T23:19:07.359Z,101159.89
2018-02-09T23:21:33.206Z,101162.41
2018-02-09T23:23:59.018Z,101162.86
2018-02-09T23:26:24.838Z,101155.81
2018-02-09T23:28:50.679Z,101155.89
2018-02-09T23:31:16.493Z,101161.09
2018-02-09T23:33:42.305Z,101158.86
2018-02-09T23:36:08.108Z,101158.29
2018-02-09T23:38:33.915Z,101150.36
2018-02-09T23:40:59.726Z,101151.89
2018-02-09T23:43:25.551Z,101149.89
2018-02-09T23:45:51.360Z,101153.72
2018-02-09T23:48:17.175Z,101150.00
2018-02-09T23:50:43.043Z,101153.37
2018-02-09T23:53:08.885Z,101153.04
2018-02-09T23:55:34.698Z,101152.89
2018-02-09T23:58:00.550Z,101154.56
